createdAt,value
2022-10-06T00:00:37.736Z,0.00
2022-10-06T00:01:37.745Z,0.00
2022-10-06T00:02:37.752Z,0.00
2022-10-06T00:03:37.697Z,0.00
2022-10-06T00:04:37.671Z,0.00
2022-10-06T00:05:37.665Z,0.00
2022-10-06T00:06:37.655Z,0.00
2022-10-06T00:07:37.640Z,0.00
2022-10-06T00:08:37.652Z,0.00
2022-10-06T00:09:37.724Z,0.00
2022-10-06T00:10:37.612Z,0.00
2022-10-06T00:11:37.601Z,0.00
2022-10-06T00:12:37.603Z,0.00
2022-10-06T00:13:37.592Z,0.00
2022-10-06T00:14:37.563Z,0.00
2022-10-06T00:15:37.592Z,0.00
2022-10-06T00:16:37.570Z,0.00
2022-10-06T00:17:37.539Z,0.00
2022-10-06T00:18:37.543Z,0.00
2022-10-06T00:19:37.517Z,0.00
2022-10-06T00:20:37.505Z,0.00
2022-10-06T00:21:37.496Z,0.00
2022-10-06T00:22:37.504Z,0.00
2022-10-06T00:23:37.467Z,0.00
2022-10-06T00:24:37.465Z,0.00
2022-10-06T00:25:37.450Z,0.00
2022-10-06T00:26:37.446Z,0.00
2022-10-06T00:27:37.456Z,0.00
2022-10-06T00:28:37.485Z,0.00
2022-10-06T00:29:37.419Z,0.00
2022-10-06T00:30:37.397Z,0.00
2022-10-06T00:31:37.388Z,0.00
2022-10-06T00:32:37.387Z,0.00
2022-10-06T00:33:37.372Z,0.00
2022-10-06T00:34:37.371Z,0.00
2022-10-06T00:35:37.350Z,0.00
2022-10-06T00:36:37.344Z,0.00
2022-10-06T00:37:37.329Z,0.00
2022-10-06T00:38:37.320Z,0.00
2022-10-06T00:39:37.333Z,0.00
2022-10-06T00:40:37.297Z,0.00
2022-10-06T00:41:37.284Z,0.00
2022-10-06T00:42:37.259Z,0.00
2022-10-06T00:43:37.458Z,0.00
2022-10-06T00:44:37.603Z,0.00
2022-10-06T00:45:37.333Z,0.00
2022-10-06T00:46:37.458Z,0.00
2022-10-06T00:47:37.229Z,0.00
2022-10-06T00:48:37.209Z,0.00
2022-10-06T00:49:37.212Z,0.00
2022-10-06T00:50:37.192Z,0.00
2022-10-06T00:51:37.172Z,0.00
2022-10-06T00:52:37.174Z,0.00
2022-10-06T00:53:37.175Z,0.00
2022-10-06T00:54:37.154Z,0.00
2022-10-06T00:55:37.173Z,0.00
2022-10-06T00:56:37.419Z,0.00
2022-10-06T00:57:37.177Z,0.00
2022-10-06T00:58:37.094Z,0.00
2022-10-06T00:59:37.100Z,0.00
2022-10-06T01:00:37.103Z,0.00
2022-10-06T01:01:37.086Z,0.00
2022-10-06T01:02:37.186Z,0.00
2022-10-06T01:03:37.055Z,0.00
2022-10-06T01:04:37.039Z,0.00
2022-10-06T01:05:37.028Z,0.00
2022-10-06T01:06:37.024Z,0.00
2022-10-06T01:07:37.015Z,0.00
2022-10-06T01:08:37.021Z,0.00
2022-10-06T01:09:37.103Z,0.00
2022-10-06T01:10:36.975Z,0.00
2022-10-06T01:11:36.978Z,0.00
2022-10-06T01:12:36.960Z,0.00
2022-10-06T01:13:36.956Z,0.00
2022-10-06T01:14:36.946Z,0.00
2022-10-06T01:15:36.980Z,0.00
2022-10-06T01:16:36.920Z,0.00
2022-10-06T01:17:36.899Z,0.00
2022-10-06T01:18:36.896Z,0.00
2022-10-06T01:19:36.887Z,0.00
2022-10-06T01:20:36.899Z,0.00
2022-10-06T01:21:36.880Z,0.00
2022-10-06T01:22:36.848Z,0.00
2022-10-06T01:23:36.840Z,0.00
2022-10-06T01:24:36.829Z,0.00
2022-10-06T01:25:36.840Z,0.00
2022-10-06T01:26:36.810Z,0.00
2022-10-06T01:27:36.810Z,0.00
2022-10-06T01:28:36.847Z,0.00
2022-10-06T01:29:36.770Z,0.00
2022-10-06T01:30:36.788Z,0.00
2022-10-06T01:31:36.795Z,0.00
2022-10-06T01:32:36.758Z,0.00
2022-10-06T01:33:36.721Z,0.00
2022-10-06T01:34:36.762Z,0.00
2022-10-06T01:35:36.725Z,0.00
2022-10-06T01:36:36.708Z,0.00
2022-10-06T01:37:36.682Z,0.00
2022-10-06T01:38:36.714Z,0.00
2022-10-06T01:39:36.673Z,0.00
2022-10-06T01:40:36.663Z,0.00
2022-10-06T01:41:36.667Z,0.00
2022-10-06T01:42:36.632Z,0.00
2022-10-06T01:43:36.625Z,0.00
2022-10-06T01:44:36.639Z,0.00
2022-10-06T01:45:36.613Z,0.00
2022-10-06T01:46:36.660Z,0.00
2022-10-06T01:47:36.585Z,0.00
2022-10-06T01:48:36.564Z,0.00
2022-10-06T01:49:36.578Z,0.00
2022-10-06T01:50:36.546Z,0.00
2022-10-06T01:51:36.536Z,0.00
2022-10-06T01:52:36.548Z,0.00
2022-10-06T01:53:36.517Z,0.00
2022-10-06T01:54:36.527Z,0.00
2022-10-06T01:55:36.501Z,0.00
2022-10-06T01:56:36.486Z,0.00
2022-10-06T01:57:36.487Z,0.00
2022-10-06T01:58:36.478Z,0.00
2022-10-06T01:59:36.457Z,0.00
2022-10-06T02:00:36.446Z,0.00
2022-10-06T02:01:36.464Z,0.00
2022-10-06T02:02:36.437Z,0.00
2022-10-06T02:03:36.417Z,0.00
2022-10-06T02:04:36.397Z,0.00
2022-10-06T02:05:36.400Z,0.00
2022-10-06T02:06:36.460Z,0.00
2022-10-06T02:07:36.371Z,0.00
2022-10-06T02:08:36.371Z,0.00
2022-10-06T02:09:36.354Z,0.00
2022-10-06T02:10:36.340Z,0.00
2022-10-06T02:11:36.320Z,0.00
2022-10-06T02:12:36.341Z,0.00
2022-10-06T02:13:36.320Z,0.00
2022-10-06T02:14:36.302Z,0.00
2022-10-06T02:15:36.345Z,0.00
2022-10-06T02:16:36.273Z,0.00
2022-10-06T02:17:36.281Z,0.00
2022-10-06T02:18:36.251Z,0.00
2022-10-06T02:19:36.243Z,0.00
2022-10-06T02:20:36.236Z,0.00
2022-10-06T02:21:36.241Z,0.00
2022-10-06T02:22:36.214Z,0.00
2022-10-06T02:23:36.212Z,0.00
2022-10-06T02:24:36.185Z,0.00
2022-10-06T02:25:36.182Z,0.00
2022-10-06T02:26:36.183Z,0.00
2022-10-06T02:27:36.164Z,0.00
2022-10-06T02:28:36.219Z,0.00
2022-10-06T02:29:36.138Z,0.00
2022-10-06T02:30:36.118Z,0.00
2022-10-06T02:31:36.176Z,0.00
2022-10-06T02:32:36.105Z,0.00
2022-10-06T02:33:36.092Z,0.00
2022-10-06T02:34:36.096Z,0.00
2022-10-06T02:35:36.068Z,0.00
2022-10-06T02:36:36.092Z,0.00
2022-10-06T02:37:36.051Z,0.00
2022-10-06T02:38:36.058Z,0.00
2022-10-06T02:39:36.035Z,0.00
2022-10-06T02:40:36.034Z,0.00
2022-10-06T02:41:36.014Z,0.00
2022-10-06T02:42:35.987Z,0.00
2022-10-06T02:43:36.010Z,0.00
2022-10-06T02:44:36.013Z,0.00
2022-10-06T02:45:35.979Z,0.00
2022-10-06T02:46:36.019Z,0.00
2022-10-06T02:47:35.949Z,0.00
2022-10-06T02:48:35.951Z,0.00
2022-10-06T02:49:35.922Z,0.00
2022-10-06T02:50:35.918Z,0.00
2022-10-06T02:51:35.898Z,0.00
2022-10-06T02:52:35.890Z,0.00
2022-10-06T02:53:35.890Z,0.00
2022-10-06T02:54:35.871Z,0.00
2022-10-06T02:55:35.863Z,0.00
2022-10-06T02:56:35.841Z,0.00
2022-10-06T02:57:35.849Z,0.00
2022-10-06T02:58:35.824Z,0.00
2022-10-06T02:59:35.813Z,0.00
2022-10-06T03:00:35.801Z,0.00
2022-10-06T03:01:35.839Z,0.00
2022-10-06T03:02:35.909Z,0.00
2022-10-06T03:03:35.783Z,0.00
2022-10-06T03:04:35.753Z,0.00
2022-10-06T03:05:35.767Z,0.00
2022-10-06T03:06:35.733Z,0.00
2022-10-06T03:07:35.724Z,0.00
2022-10-06T03:08:35.736Z,0.00
2022-10-06T03:09:35.713Z,0.00
2022-10-06T03:10:35.723Z,0.00
2022-10-06T03:11:35.683Z,0.00
2022-10-06T03:12:35.678Z,0.00
2022-10-06T03:13:35.679Z,0.00
2022-10-06T03:14:35.655Z,0.00
2022-10-06T03:15:35.654Z,0.00
2022-10-06T03:16:35.647Z,0.00
2022-10-06T03:17:35.618Z,0.00
2022-10-06T03:18:35.614Z,0.00
2022-10-06T03:19:35.619Z,0.00
2022-10-06T03:20:35.613Z,0.00
2022-10-06T03:21:35.577Z,0.00
2022-10-06T03:22:35.592Z,0.00
2022-10-06T03:23:35.556Z,0.00
2022-10-06T03:24:35.558Z,0.00
2022-10-06T03:25:35.556Z,0.00
2022-10-06T03:26:35.518Z,0.00
2022-10-06T03:27:35.514Z,0.00
2022-10-06T03:28:35.592Z,0.00
2022-10-06T03:29:35.507Z,0.00
2022-10-06T03:30:35.505Z,0.00
2022-10-06T03:31:35.575Z,0.00
2022-10-06T03:32:35.469Z,0.00
2022-10-06T03:33:35.451Z,0.00
2022-10-06T03:34:35.449Z,0.00
2022-10-06T03:35:35.453Z,0.00
2022-10-06T03:36:35.432Z,0.00
2022-10-06T03:37:35.410Z,0.00
2022-10-06T03:38:35.390Z,0.00
2022-10-06T03:39:35.391Z,0.00
2022-10-06T03:40:35.372Z,0.00
2022-10-06T03:41:35.389Z,0.00
2022-10-06T03:42:35.352Z,0.00
2022-10-06T03:43:35.352Z,0.00
2022-10-06T03:44:35.354Z,0.00
2022-10-06T03:45:35.340Z,0.00
2022-10-06T03:46:35.371Z,0.00
2022-10-06T03:47:35.303Z,0.00
2022-10-06T03:48:35.294Z,0.00
2022-10-06T03:49:35.284Z,0.00
2022-10-06T03:50:35.292Z,0.00
2022-10-06T03:51:35.255Z,0.00
2022-10-06T03:52:35.250Z,0.00
2022-10-06T03:53:35.256Z,0.00
2022-10-06T03:54:35.230Z,0.00
2022-10-06T03:55:35.246Z,0.00
2022-10-06T03:56:35.215Z,0.00
2022-10-06T03:57:35.215Z,0.00
2022-10-06T03:58:35.188Z,0.00
2022-10-06T03:59:35.174Z,0.00
2022-10-06T04:00:35.269Z,0.00
2022-10-06T04:01:35.215Z,0.00
2022-10-06T04:02:35.148Z,0.00
2022-10-06T04:03:35.127Z,0.00
2022-10-06T04:04:35.145Z,0.00
2022-10-06T04:05:35.107Z,0.00
2022-10-06T04:06:35.096Z,0.00
2022-10-06T04:07:35.098Z,0.00
2022-10-06T04:08:35.078Z,0.00
2022-10-06T04:09:35.083Z,0.00
2022-10-06T04:10:35.061Z,0.00
2022-10-06T04:11:35.052Z,0.00
2022-10-06T04:12:35.039Z,0.00
2022-10-06T04:13:35.050Z,0.00
2022-10-06T04:14:35.030Z,0.00
2022-10-06T04:15:35.009Z,0.00
2022-10-06T04:16:35.110Z,0.00
2022-10-06T04:17:34.992Z,0.00
2022-10-06T04:18:34.992Z,0.00
2022-10-06T04:19:34.968Z,0.00
2022-10-06T04:20:34.960Z,0.00
2022-10-06T04:21:34.943Z,0.00
2022-10-06T04:22:34.930Z,0.00
2022-10-06T04:23:34.942Z,0.00
2022-10-06T04:24:34.913Z,0.00
2022-10-06T04:25:34.908Z,0.00
2022-10-06T04:26:34.893Z,0.00
2022-10-06T04:27:34.903Z,0.00
2022-10-06T04:28:35.124Z,0.00
2022-10-06T04:29:35.595Z,0.00
2022-10-06T04:30:34.863Z,0.00
2022-10-06T04:31:34.858Z,0.00
2022-10-06T04:32:34.851Z,0.00
2022-10-06T04:33:34.856Z,0.00
2022-10-06T04:34:34.858Z,0.00
2022-10-06T04:35:34.796Z,0.00
2022-10-06T04:36:34.787Z,0.00
2022-10-06T04:37:34.755Z,1.00
2022-10-06T04:38:34.767Z,0.00
2022-10-06T04:39:34.758Z,0.00
2022-10-06T04:40:34.736Z,0.00
2022-10-06T04:41:34.735Z,0.00
2022-10-06T04:42:35.423Z,1.00
2022-10-06T04:43:34.729Z,0.00
2022-10-06T04:44:34.700Z,0.00
2022-10-06T04:45:34.757Z,0.00
2022-10-06T04:46:43.797Z,1.00
2022-10-06T04:47:35.636Z,1.00
2022-10-06T04:48:34.658Z,0.00
2022-10-06T04:49:34.607Z,2.00
2022-10-06T04:50:34.594Z,2.00
2022-10-06T04:51:34.597Z,1.00
2022-10-06T04:52:34.611Z,0.00
2022-10-06T04:53:34.560Z,1.00
2022-10-06T04:54:34.543Z,1.00
2022-10-06T04:55:34.524Z,4.00
2022-10-06T04:56:34.520Z,5.00
2022-10-06T04:57:34.539Z,4.00
2022-10-06T04:58:34.503Z,2.00
2022-10-06T04:59:34.489Z,5.00
2022-10-06T05:00:34.511Z,7.00
2022-10-06T05:01:34.489Z,9.00
2022-10-06T05:02:34.482Z,14.00
2022-10-06T05:03:34.451Z,14.00
2022-10-06T05:04:34.442Z,12.00
2022-10-06T05:05:34.453Z,14.00
2022-10-06T05:06:34.435Z,17.00
2022-10-06T05:07:34.415Z,21.00
2022-10-06T05:08:34.395Z,25.00
2022-10-06T05:09:34.387Z,32.00
2022-10-06T05:10:34.373Z,30.00
2022-10-06T05:11:34.375Z,35.00
2022-10-06T05:12:34.355Z,38.00
2022-10-06T05:13:34.354Z,48.00
2022-10-06T05:14:34.355Z,57.00
2022-10-06T05:15:34.327Z,61.00
2022-10-06T05:16:34.854Z,71.00
2022-10-06T05:17:34.294Z,75.00
2022-10-06T05:18:34.315Z,77.00
2022-10-06T05:19:34.276Z,83.00
2022-10-06T05:20:34.275Z,87.00
2022-10-06T05:21:34.254Z,92.00
2022-10-06T05:22:34.247Z,99.00
2022-10-06T05:23:34.271Z,115.00
2022-10-06T05:24:34.216Z,119.00
2022-10-06T05:25:34.237Z,136.00
2022-10-06T05:26:34.210Z,160.00
2022-10-06T05:27:34.199Z,181.00
2022-10-06T05:28:34.604Z,197.00
2022-10-06T05:29:34.171Z,206.00
2022-10-06T05:30:34.199Z,221.00
2022-10-06T05:31:34.210Z,240.00
2022-10-06T05:32:36.196Z,250.00
2022-10-06T05:33:34.128Z,269.00
2022-10-06T05:34:34.118Z,296.00
2022-10-06T05:35:34.121Z,304.00
2022-10-06T05:36:34.182Z,331.00
2022-10-06T05:37:34.093Z,380.00
2022-10-06T05:38:34.102Z,393.00
2022-10-06T05:39:34.068Z,417.00
2022-10-06T05:40:34.057Z,423.00
2022-10-06T05:41:34.066Z,451.00
2022-10-06T05:42:34.043Z,554.00
2022-10-06T05:43:34.031Z,622.00
2022-10-06T05:44:34.023Z,631.00
2022-10-06T05:45:34.055Z,648.00
2022-10-06T05:46:33.982Z,681.00
2022-10-06T05:47:34.006Z,714.00
2022-10-06T05:48:33.992Z,772.00
2022-10-06T05:49:33.964Z,789.00
2022-10-06T05:50:33.948Z,775.00
2022-10-06T05:51:33.957Z,843.00
2022-10-06T05:52:33.927Z,975.00
2022-10-06T05:53:33.945Z,1013.00
2022-10-06T05:54:33.904Z,1010.00
2022-10-06T05:55:33.891Z,981.00
2022-10-06T05:56:33.915Z,1052.00
2022-10-06T05:57:33.894Z,1169.00
2022-10-06T05:58:34.425Z,1263.00
2022-10-06T05:59:33.855Z,1261.00
2022-10-06T06:00:33.872Z,1180.00
2022-10-06T06:01:33.843Z,1120.00
2022-10-06T06:02:33.892Z,1076.00
2022-10-06T06:03:33.837Z,1065.00
2022-10-06T06:04:33.807Z,1077.00
2022-10-06T06:05:33.789Z,1101.00
2022-10-06T06:06:33.779Z,1111.00
2022-10-06T06:07:33.757Z,1125.00
2022-10-06T06:08:33.810Z,1152.00
2022-10-06T06:09:33.744Z,1191.00
2022-10-06T06:10:33.740Z,1156.00
2022-10-06T06:11:33.712Z,1345.00
2022-10-06T06:12:33.723Z,1292.00
2022-10-06T06:13:33.687Z,1292.00
2022-10-06T06:14:33.689Z,1539.00
2022-10-06T06:15:33.681Z,1636.00
2022-10-06T06:16:33.767Z,1662.00
2022-10-06T06:17:33.650Z,1678.00
2022-10-06T06:18:33.650Z,1572.00
2022-10-06T06:19:33.643Z,1135.00
2022-10-06T06:20:33.630Z,1711.00
2022-10-06T06:21:33.643Z,1819.00
2022-10-06T06:22:33.609Z,1839.00
2022-10-06T06:23:33.641Z,1859.00
2022-10-06T06:24:33.599Z,1892.00
2022-10-06T06:25:33.591Z,1911.00
2022-10-06T06:26:33.593Z,1932.00
2022-10-06T06:27:33.630Z,1965.00
2022-10-06T06:28:34.131Z,1981.00
2022-10-06T06:29:33.525Z,2015.00
2022-10-06T06:30:33.532Z,2035.00
2022-10-06T06:31:33.580Z,2069.00
2022-10-06T06:32:33.493Z,2100.00
2022-10-06T06:33:33.491Z,2124.00
2022-10-06T06:34:33.478Z,2160.00
2022-10-06T06:35:33.487Z,2197.00
2022-10-06T06:36:33.456Z,2232.00
2022-10-06T06:37:33.459Z,2253.00
2022-10-06T06:38:33.649Z,2282.00
2022-10-06T06:39:33.434Z,2314.00
2022-10-06T06:40:33.431Z,2352.00
2022-10-06T06:41:33.400Z,2373.00
2022-10-06T06:42:33.396Z,2407.00
2022-10-06T06:43:33.474Z,2418.00
2022-10-06T06:44:33.377Z,2442.00
2022-10-06T06:45:33.376Z,2489.00
2022-10-06T06:46:33.420Z,2550.00
2022-10-06T06:47:33.337Z,2560.00
2022-10-06T06:48:33.676Z,2665.00
2022-10-06T06:49:33.338Z,2690.00
2022-10-06T06:50:33.306Z,2665.00
2022-10-06T06:51:33.326Z,2602.00
2022-10-06T06:52:33.289Z,2695.00
2022-10-06T06:53:33.275Z,2749.00
2022-10-06T06:54:33.309Z,2744.00
2022-10-06T06:55:33.280Z,2783.00
2022-10-06T06:56:33.269Z,2966.00
2022-10-06T06:57:33.239Z,3218.00
2022-10-06T06:58:33.641Z,2907.00
2022-10-06T06:59:33.219Z,3703.00
2022-10-06T07:00:36.150Z,2817.00
2022-10-06T07:01:33.243Z,3487.00
2022-10-06T07:02:33.244Z,3477.00
2022-10-06T07:03:55.935Z,3457.00
2022-10-06T07:04:34.154Z,3748.00
2022-10-06T07:05:33.169Z,4028.00
2022-10-06T07:06:33.146Z,2425.00
2022-10-06T07:07:33.122Z,1242.00
2022-10-06T07:08:33.401Z,4064.00
2022-10-06T07:09:33.109Z,3911.00
2022-10-06T07:10:33.096Z,4621.00
2022-10-06T07:11:33.084Z,2113.00
2022-10-06T07:12:33.072Z,3898.00
2022-10-06T07:13:33.082Z,3929.00
2022-10-06T07:14:33.084Z,3804.00
2022-10-06T07:15:33.109Z,3697.00
2022-10-06T07:16:33.035Z,3680.00
2022-10-06T07:17:33.043Z,3829.00
2022-10-06T07:18:33.108Z,3734.00
2022-10-06T07:19:33.003Z,3667.00
2022-10-06T07:20:32.986Z,3726.00
2022-10-06T07:21:32.996Z,3835.00
2022-10-06T07:22:32.974Z,3801.00
2022-10-06T07:23:32.983Z,3882.00
2022-10-06T07:24:32.948Z,3857.00
2022-10-06T07:25:32.952Z,3876.00
2022-10-06T07:26:32.927Z,4226.00
2022-10-06T07:27:32.917Z,861.00
2022-10-06T07:28:32.936Z,4087.00
2022-10-06T07:29:32.905Z,4027.00
2022-10-06T07:30:35.980Z,3979.00
2022-10-06T07:31:33.954Z,3854.00
2022-10-06T07:32:32.898Z,4559.00
2022-10-06T07:33:32.869Z,4724.00
2022-10-06T07:34:32.853Z,4491.00
2022-10-06T07:35:32.840Z,4544.00
2022-10-06T07:36:32.817Z,4466.00
2022-10-06T07:37:32.809Z,4613.00
2022-10-06T07:38:32.829Z,4379.00
2022-10-06T07:39:32.804Z,4831.00
2022-10-06T07:40:32.787Z,4317.00
2022-10-06T07:41:32.791Z,4966.00
2022-10-06T07:42:32.770Z,5049.00
2022-10-06T07:43:32.747Z,4770.00
2022-10-06T07:44:32.757Z,6268.00
2022-10-06T07:45:32.780Z,1235.00
2022-10-06T07:46:32.752Z,4985.00
2022-10-06T07:47:32.711Z,7109.00
2022-10-06T07:48:32.707Z,1487.00
2022-10-06T07:49:32.690Z,5786.00
2022-10-06T07:50:32.689Z,8003.00
2022-10-06T07:51:32.677Z,1545.00
2022-10-06T07:52:32.694Z,6908.00
2022-10-06T07:53:32.655Z,6577.00
2022-10-06T07:54:32.743Z,3928.00
2022-10-06T07:55:32.751Z,3454.00
2022-10-06T07:56:32.725Z,2855.00
2022-10-06T07:57:32.623Z,1693.00
2022-10-06T07:58:32.604Z,8589.00
2022-10-06T07:59:33.167Z,4735.00
2022-10-06T08:01:32.630Z,2695.00
2022-10-06T08:02:35.613Z,6080.00
2022-10-06T08:03:32.564Z,3245.00
2022-10-06T08:04:32.528Z,1177.00
2022-10-06T08:05:32.522Z,6172.00
2022-10-06T08:06:32.524Z,4318.00
2022-10-06T08:07:32.486Z,1971.00
2022-10-06T08:08:32.569Z,4596.00
2022-10-06T08:09:32.468Z,1418.00
2022-10-06T08:10:32.468Z,8201.00
2022-10-06T08:11:32.474Z,1656.00
2022-10-06T08:12:32.599Z,7255.00
2022-10-06T08:13:32.448Z,6549.00
2022-10-06T08:14:32.439Z,6444.00
2022-10-06T08:15:32.415Z,8379.00
2022-10-06T08:16:32.428Z,4665.00
2022-10-06T08:17:36.418Z,8336.00
2022-10-06T08:18:45.956Z,2268.00
2022-10-06T08:19:33.400Z,6704.00
2022-10-06T08:20:32.348Z,4884.00
2022-10-06T08:21:32.339Z,1388.00
2022-10-06T08:22:32.340Z,6170.00
2022-10-06T08:23:32.337Z,6585.00
2022-10-06T08:24:54.143Z,6848.00
2022-10-06T08:25:33.326Z,7116.00
2022-10-06T08:26:32.286Z,7245.00
2022-10-06T08:27:32.272Z,1222.00
2022-10-06T08:28:32.364Z,6764.00
2022-10-06T08:29:32.282Z,1146.00
2022-10-06T08:30:32.257Z,6620.00
2022-10-06T08:31:32.397Z,6463.00
2022-10-06T08:32:32.254Z,6845.00
2022-10-06T08:33:32.222Z,5984.00
2022-10-06T08:34:32.222Z,7361.00
2022-10-06T08:35:32.203Z,1330.00
2022-10-06T08:36:32.845Z,8528.00
2022-10-06T08:37:32.189Z,1698.00
2022-10-06T08:38:32.179Z,6835.00
2022-10-06T08:39:32.165Z,7168.00
2022-10-06T08:40:32.156Z,1820.00
2022-10-06T08:41:36.380Z,1636.00
2022-10-06T08:42:32.115Z,7016.00
2022-10-06T08:43:32.115Z,8159.00
2022-10-06T08:44:32.088Z,3590.00
2022-10-06T08:45:36.189Z,1875.00
2022-10-06T08:46:33.104Z,5832.00
2022-10-06T08:47:32.076Z,3735.00
2022-10-06T08:48:32.151Z,3413.00
2022-10-06T08:49:32.145Z,1193.00
2022-10-06T08:50:32.068Z,3244.00
2022-10-06T08:51:32.017Z,8226.00
2022-10-06T08:52:32.172Z,4469.00
2022-10-06T08:53:32.121Z,4175.00
2022-10-06T08:54:31.998Z,1324.00
2022-10-06T08:55:32.004Z,7720.00
2022-10-06T08:56:31.959Z,1292.00
2022-10-06T08:57:31.980Z,7452.00
2022-10-06T08:58:33.395Z,7485.00
2022-10-06T08:59:31.931Z,10673.00
2022-10-06T09:00:31.930Z,3167.00
2022-10-06T09:01:31.961Z,8140.00
2022-10-06T09:02:31.979Z,8495.00
2022-10-06T09:03:31.896Z,8781.00
2022-10-06T09:04:31.872Z,8675.00
2022-10-06T09:05:31.924Z,9335.00
2022-10-06T09:06:31.978Z,9122.00
2022-10-06T09:07:31.848Z,1605.00
2022-10-06T09:08:31.852Z,7749.00
2022-10-06T09:09:31.837Z,7512.00
2022-10-06T09:10:31.837Z,7736.00
2022-10-06T09:11:31.811Z,7909.00
2022-10-06T09:12:31.786Z,8135.00
2022-10-06T09:13:31.784Z,8084.00
2022-10-06T09:14:31.781Z,8169.00
2022-10-06T09:15:31.764Z,10396.00
2022-10-06T09:16:31.817Z,4943.00
2022-10-06T09:17:31.736Z,10836.00
2022-10-06T09:18:49.877Z,9316.00
2022-10-06T09:19:33.843Z,1931.00
2022-10-06T09:20:31.717Z,9032.00
2022-10-06T09:21:31.718Z,8793.00
2022-10-06T09:22:31.904Z,8689.00
2022-10-06T09:23:31.678Z,1326.00
2022-10-06T09:24:31.686Z,6657.00
2022-10-06T09:25:31.761Z,1480.00
2022-10-06T09:26:31.653Z,8537.00
2022-10-06T09:27:31.640Z,1380.00
2022-10-06T09:28:31.711Z,7998.00
2022-10-06T09:29:31.643Z,8535.00
2022-10-06T09:30:31.604Z,1303.00
2022-10-06T09:31:31.644Z,3498.00
2022-10-06T09:32:31.604Z,7984.00
2022-10-06T09:33:31.605Z,8065.00
2022-10-06T09:34:31.606Z,9664.00
2022-10-06T09:35:31.561Z,6030.00
2022-10-06T09:36:31.547Z,8476.00
2022-10-06T09:37:31.542Z,8827.00
2022-10-06T09:38:31.524Z,1643.00
2022-10-06T09:39:31.534Z,9085.00
2022-10-06T09:40:31.493Z,1402.00
2022-10-06T09:41:31.485Z,6240.00
2022-10-06T09:42:31.500Z,8467.00
2022-10-06T09:43:31.462Z,8669.00
2022-10-06T09:44:31.506Z,8553.00
2022-10-06T09:45:31.543Z,8212.00
2022-10-06T09:46:31.454Z,8085.00
2022-10-06T09:47:31.420Z,1312.00
2022-10-06T09:48:31.426Z,7966.00
2022-10-06T09:49:31.450Z,8442.00
2022-10-06T09:50:31.385Z,3756.00
2022-10-06T09:51:31.395Z,1374.00
2022-10-06T09:52:31.387Z,8443.00
2022-10-06T09:53:34.335Z,2953.00
2022-10-06T09:54:32.350Z,3282.00
2022-10-06T09:55:31.369Z,3925.00
2022-10-06T09:56:33.896Z,1348.00
2022-10-06T09:57:31.318Z,6679.00
2022-10-06T09:58:31.313Z,8612.00
2022-10-06T09:59:34.055Z,8514.00
2022-10-06T10:00:32.346Z,8023.00
2022-10-06T10:01:31.412Z,8137.00
2022-10-06T10:02:31.307Z,1531.00
2022-10-06T10:03:31.275Z,1710.00
2022-10-06T10:04:31.916Z,9994.00
2022-10-06T10:05:31.266Z,1993.00
2022-10-06T10:06:36.791Z,8654.00
2022-10-06T10:07:31.201Z,10730.00
2022-10-06T10:08:31.279Z,6447.00
2022-10-06T10:09:31.192Z,1239.00
2022-10-06T10:10:31.229Z,9164.00
2022-10-06T10:11:31.163Z,6760.00
2022-10-06T10:12:31.200Z,8387.00
2022-10-06T10:13:31.168Z,8181.00
2022-10-06T10:14:31.186Z,7946.00
2022-10-06T10:15:31.265Z,1223.00
2022-10-06T10:16:31.267Z,7920.00
2022-10-06T10:17:31.161Z,1190.00
2022-10-06T10:18:32.557Z,8093.00
2022-10-06T10:19:31.242Z,7967.00
2022-10-06T10:20:31.095Z,9129.00
2022-10-06T10:21:31.082Z,5917.00
2022-10-06T10:22:31.274Z,8042.00
2022-10-06T10:23:31.937Z,8119.00
2022-10-06T10:24:31.027Z,8501.00
2022-10-06T10:25:31.048Z,7550.00
2022-10-06T10:26:31.108Z,1192.00
2022-10-06T10:27:30.998Z,8236.00
2022-10-06T10:28:31.014Z,8023.00
2022-10-06T10:29:32.934Z,7990.00
2022-10-06T10:30:31.000Z,1221.00
2022-10-06T10:31:31.025Z,8190.00
2022-10-06T10:32:30.964Z,8537.00
2022-10-06T10:33:30.976Z,1531.00
2022-10-06T10:34:30.930Z,8238.00
2022-10-06T10:35:30.914Z,8218.00
2022-10-06T10:36:30.901Z,8227.00
2022-10-06T10:37:30.938Z,8336.00
2022-10-06T10:38:30.879Z,8463.00
2022-10-06T10:39:30.871Z,8491.00
2022-10-06T10:40:30.860Z,8360.00
2022-10-06T10:41:30.859Z,9796.00
2022-10-06T10:42:30.851Z,1927.00
2022-10-06T10:43:30.840Z,8435.00
2022-10-06T10:44:30.813Z,8440.00
2022-10-06T10:45:30.803Z,8609.00
2022-10-06T10:46:30.837Z,8406.00
2022-10-06T10:47:30.812Z,2376.00
2022-10-06T10:48:30.805Z,1702.00
2022-10-06T10:49:30.754Z,9316.00
2022-10-06T10:50:31.772Z,6865.00
2022-10-06T10:51:30.777Z,9132.00
2022-10-06T10:52:30.747Z,7472.00
2022-10-06T10:53:30.735Z,8414.00
2022-10-06T10:54:30.712Z,9466.00
2022-10-06T10:55:30.713Z,8567.00
2022-10-06T10:56:30.689Z,1652.00
2022-10-06T10:57:30.674Z,8443.00
2022-10-06T10:58:30.667Z,8542.00
2022-10-06T10:59:30.708Z,9103.00
2022-10-06T11:00:30.827Z,7142.00
2022-10-06T11:01:30.865Z,9446.00
2022-10-06T11:02:30.657Z,7902.00
2022-10-06T11:03:30.627Z,1223.00
2022-10-06T11:04:30.617Z,9010.00
2022-10-06T11:05:30.591Z,1490.00
2022-10-06T11:06:30.634Z,9923.00
2022-10-06T11:07:30.588Z,7344.00
2022-10-06T11:08:30.589Z,8971.00
2022-10-06T11:09:30.551Z,7649.00
2022-10-06T11:10:30.723Z,8755.00
2022-10-06T11:11:30.535Z,8923.00
2022-10-06T11:12:30.534Z,3238.00
2022-10-06T11:13:30.510Z,3673.00
2022-10-06T11:14:30.509Z,1352.00
2022-10-06T11:15:30.496Z,9072.00
2022-10-06T11:16:30.516Z,8448.00
2022-10-06T11:17:30.451Z,9016.00
2022-10-06T11:18:30.475Z,8348.00
2022-10-06T11:19:30.436Z,8781.00
2022-10-06T11:20:30.456Z,8746.00
2022-10-06T11:21:30.421Z,8443.00
2022-10-06T11:22:30.431Z,8287.00
2022-10-06T11:23:30.653Z,8535.00
2022-10-06T11:24:30.382Z,8657.00
2022-10-06T11:25:34.164Z,8655.00
2022-10-06T11:26:30.369Z,8779.00
2022-10-06T11:27:30.394Z,9173.00
2022-10-06T11:28:30.397Z,9560.00
2022-10-06T11:29:30.345Z,1397.00
2022-10-06T11:30:30.336Z,7295.00
2022-10-06T11:31:30.334Z,2808.00
2022-10-06T11:32:30.348Z,6548.00
2022-10-06T11:33:30.291Z,6125.00
2022-10-06T11:34:30.269Z,4511.00
2022-10-06T11:35:30.283Z,1615.00
2022-10-06T11:36:30.669Z,9698.00
2022-10-06T11:37:30.247Z,9516.00
2022-10-06T11:38:30.260Z,1524.00
2022-10-06T11:39:30.236Z,8944.00
2022-10-06T11:40:30.232Z,8997.00
2022-10-06T11:41:30.207Z,1511.00
2022-10-06T11:43:30.210Z,1772.00
2022-10-06T11:44:30.205Z,6244.00
2022-10-06T11:45:30.217Z,8682.00
2022-10-06T11:46:32.083Z,1382.00
2022-10-06T11:47:35.495Z,8863.00
2022-10-06T11:48:31.130Z,8344.00
2022-10-06T11:49:30.191Z,8303.00
2022-10-06T11:50:30.120Z,8294.00
2022-10-06T11:51:30.121Z,8646.00
2022-10-06T11:52:30.083Z,8763.00
2022-10-06T11:53:30.103Z,8727.00
2022-10-06T11:54:30.062Z,3425.00
2022-10-06T11:55:30.094Z,1914.00
2022-10-06T11:56:30.055Z,1672.00
2022-10-06T11:57:31.413Z,8751.00
2022-10-06T11:58:42.001Z,10193.00
2022-10-06T11:59:31.022Z,3120.00
2022-10-06T12:00:30.028Z,7981.00
2022-10-06T12:01:30.017Z,7980.00
2022-10-06T12:02:30.128Z,7945.00
2022-10-06T12:03:29.965Z,7932.00
2022-10-06T12:04:30.286Z,7985.00
2022-10-06T12:05:55.418Z,7769.00
2022-10-06T12:06:30.947Z,7872.00
2022-10-06T12:07:29.933Z,8010.00
2022-10-06T12:08:29.914Z,8088.00
2022-10-06T12:09:29.908Z,7997.00
2022-10-06T12:10:29.934Z,8000.00
2022-10-06T12:11:29.913Z,8150.00
2022-10-06T12:12:29.882Z,8370.00
2022-10-06T12:17:09.396Z,8545.00
2022-10-06T12:17:30.866Z,8781.00
2022-10-06T12:18:29.810Z,8961.00
2022-10-06T12:19:29.848Z,9341.00
2022-10-06T12:20:29.790Z,8674.00
2022-10-06T12:21:29.771Z,8989.00
2022-10-06T12:22:29.805Z,10182.00
2022-10-06T12:23:29.749Z,5637.00
2022-10-06T12:24:29.741Z,2028.00
2022-10-06T12:25:29.737Z,8534.00
2022-10-06T12:26:29.770Z,8378.00
2022-10-06T12:38:40.009Z,7981.00
2022-10-06T12:39:40.267Z,8436.00
2022-10-06T12:40:40.258Z,8904.00
2022-10-06T12:41:40.255Z,7128.00
2022-10-06T12:43:02.949Z,4973.00
2022-10-06T12:43:40.279Z,7451.00
2022-10-06T12:44:40.208Z,7674.00
2022-10-06T12:45:45.118Z,7166.00
2022-10-06T12:46:41.263Z,10096.00
2022-10-06T12:47:40.220Z,5876.00
2022-10-06T12:48:40.218Z,1266.00
2022-10-06T12:49:40.214Z,5183.00
2022-10-06T12:50:40.176Z,8145.00
2022-10-06T12:51:41.129Z,7875.00